ADDS METAR Data INFO
IDs: Format: Raw Decoded Include TAF

Data at: 1747 UTC 21 Oct 2017

METAR for:KBOW (Bartow Muni, FL, US)
Text:KBOW 211655Z 07013KT 10SM FEW043 28/19 A3014
Temperature: 28.0°C ( 82°F)
Dewpoint: 19.0°C ( 66°F) [RH = 58%]
Pressure (altimeter):30.14 inches Hg (1020.7 mb)
Winds:from the ENE (70 degrees) at 15 MPH (13 knots; 6.7 m/s)
Visibility:10 or more sm (16+ km)
Ceiling:at least 12,000 feet AGL
Clouds: few clouds at 4300 feet AGL